createdAt,value
2022-10-09T00:01:05.161Z,9.60
2022-10-09T00:04:08.024Z,9.60
2022-10-09T00:07:10.805Z,9.60
2022-10-09T00:10:14.896Z,9.50
2022-10-09T00:13:17.741Z,9.50
2022-10-09T00:16:21.882Z,9.50
2022-10-09T00:19:24.728Z,9.40
2022-10-09T00:22:27.532Z,9.40
2022-10-09T00:25:31.619Z,9.40
2022-10-09T00:28:38.323Z,9.30
2022-10-09T00:31:41.527Z,9.30
2022-10-09T00:34:44.804Z,9.30
2022-10-09T00:37:49.206Z,9.20
2022-10-09T00:40:53.354Z,9.20
2022-10-09T00:43:58.595Z,9.20
2022-10-09T00:47:01.376Z,9.20
2022-10-09T00:50:07.647Z,9.10
2022-10-09T00:53:14.447Z,9.10
2022-10-09T00:56:18.874Z,9.10
2022-10-09T00:59:22.415Z,9.10
2022-10-09T01:02:25.190Z,9.10
2022-10-09T01:05:40.735Z,9.00
2022-10-09T01:08:52.434Z,9.10
2022-10-09T01:12:01.889Z,9.00
2022-10-09T01:15:12.927Z,9.00
2022-10-09T01:18:23.947Z,9.00
2022-10-09T01:21:30.904Z,9.00
2022-10-09T01:24:39.058Z,9.00
2022-10-09T01:27:43.405Z,9.00
2022-10-09T01:30:47.606Z,9.00
2022-10-09T01:33:51.230Z,9.00
2022-10-09T01:36:55.453Z,9.00
2022-10-09T01:39:59.276Z,8.90
2022-10-09T01:43:03.717Z,8.90
2022-10-09T01:46:21.159Z,8.90
2022-10-09T01:49:39.189Z,8.90
2022-10-09T01:52:48.265Z,8.90
2022-10-09T01:55:59.680Z,8.90
2022-10-09T01:59:11.261Z,8.90
2022-10-09T02:02:18.250Z,8.90
2022-10-09T02:05:28.456Z,8.80
2022-10-09T02:08:33.311Z,8.90
2022-10-09T02:11:38.823Z,8.80
2022-10-09T02:14:43.045Z,9.00
2022-10-09T02:17:49.215Z,8.90
2022-10-09T02:20:56.511Z,8.80
2022-10-09T02:24:00.420Z,8.80
2022-10-09T02:27:04.059Z,8.70
2022-10-09T02:30:10.292Z,8.70
2022-10-09T02:33:13.074Z,8.70
2022-10-09T02:36:15.843Z,8.80
2022-10-09T02:39:18.914Z,8.70
2022-10-09T02:42:22.101Z,8.70
2022-10-09T02:45:26.340Z,8.80
2022-10-09T02:48:29.276Z,8.70
2022-10-09T02:51:32.039Z,8.70
2022-10-09T02:54:34.935Z,8.70
2022-10-09T02:57:37.711Z,8.70
2022-10-09T03:00:41.846Z,8.70
2022-10-09T03:03:45.465Z,8.70
2022-10-09T03:06:48.203Z,8.60
2022-10-09T03:09:50.915Z,8.80
2022-10-09T03:12:53.708Z,8.60
2022-10-09T03:16:03.961Z,8.60
2022-10-09T03:19:06.793Z,8.60
2022-10-09T03:22:09.702Z,8.50
2022-10-09T03:25:12.684Z,8.70
2022-10-09T03:28:18.512Z,8.40
2022-10-09T03:34:48.720Z,8.40
2022-10-09T03:37:51.502Z,8.50
2022-10-09T03:40:54.606Z,8.40
2022-10-09T03:43:57.356Z,8.40
2022-10-09T03:47:01.543Z,8.40
2022-10-09T03:50:04.576Z,8.40
2022-10-09T03:53:08.195Z,8.40
2022-10-09T03:56:10.982Z,8.40
2022-10-09T03:59:13.909Z,8.30
2022-10-09T04:02:18.067Z,8.30
2022-10-09T04:05:20.931Z,8.30
2022-10-09T04:08:23.695Z,8.30
2022-10-09T04:11:26.421Z,8.30
2022-10-09T04:14:29.175Z,8.30
2022-10-09T04:17:33.320Z,8.20
2022-10-09T04:20:36.130Z,8.20
2022-10-09T04:23:38.877Z,8.20
2022-10-09T04:26:41.751Z,8.20
2022-10-09T04:29:44.547Z,8.50
2022-10-09T04:32:49.264Z,8.20
2022-10-09T04:35:54.270Z,8.10
2022-10-09T04:38:57.134Z,8.30
2022-10-09T04:41:59.938Z,8.10
2022-10-09T04:45:02.774Z,8.30
2022-10-09T04:48:07.038Z,8.20
2022-10-09T04:51:10.661Z,8.10
2022-10-09T04:54:13.674Z,8.30
2022-10-09T04:57:16.474Z,8.10
2022-10-09T05:00:19.397Z,8.00
2022-10-09T05:03:23.671Z,8.00
2022-10-09T05:06:26.791Z,7.90
2022-10-09T05:09:29.576Z,7.80
2022-10-09T05:12:32.361Z,7.90
2022-10-09T05:15:37.635Z,7.80
2022-10-09T05:18:44.490Z,7.70
2022-10-09T05:21:47.271Z,7.80
2022-10-09T05:24:49.982Z,7.80
2022-10-09T05:27:53.204Z,7.60
2022-10-09T05:30:55.992Z,7.80
2022-10-09T05:34:01.583Z,7.80
2022-10-09T05:37:04.468Z,8.00
2022-10-09T05:40:08.611Z,7.70
2022-10-09T05:43:11.405Z,7.80
2022-10-09T05:46:15.865Z,7.80
2022-10-09T05:49:20.085Z,7.80
2022-10-09T05:52:22.986Z,7.70
2022-10-09T05:55:26.782Z,7.80
2022-10-09T05:58:29.522Z,7.90
2022-10-09T06:01:34.281Z,7.80
2022-10-09T06:04:38.422Z,7.90
2022-10-09T06:07:41.255Z,7.90
2022-10-09T06:10:44.041Z,7.90
2022-10-09T06:13:48.094Z,8.20
2022-10-09T06:16:51.224Z,8.00
2022-10-09T06:19:55.400Z,8.10
2022-10-09T06:22:58.419Z,8.20
2022-10-09T06:26:05.092Z,8.20
2022-10-09T06:29:07.853Z,8.40
2022-10-09T06:32:10.666Z,8.30
2022-10-09T06:35:14.838Z,8.30
2022-10-09T06:38:18.085Z,8.40
2022-10-09T06:41:22.109Z,8.40
2022-10-09T06:44:24.830Z,8.50
2022-10-09T06:47:27.565Z,8.50
2022-10-09T06:50:31.657Z,8.60
2022-10-09T06:53:35.723Z,8.80
2022-10-09T06:56:38.567Z,8.90
2022-10-09T06:59:41.343Z,9.00
2022-10-09T07:02:44.398Z,9.00
2022-10-09T07:05:48.560Z,9.10
2022-10-09T07:08:53.581Z,9.10
2022-10-09T07:11:56.361Z,9.10
2022-10-09T07:14:59.113Z,9.20
2022-10-09T07:18:03.619Z,9.40
2022-10-09T07:21:09.264Z,9.40
2022-10-09T07:24:13.157Z,9.50
2022-10-09T07:27:15.908Z,9.60
2022-10-09T07:30:18.791Z,9.70
2022-10-09T07:33:21.729Z,9.80
2022-10-09T07:36:25.948Z,9.90
2022-10-09T07:39:28.702Z,10.00
2022-10-09T07:42:31.433Z,10.10
2022-10-09T07:45:35.828Z,10.30
2022-10-09T07:48:38.721Z,10.30
2022-10-09T07:51:42.823Z,10.40
2022-10-09T07:54:45.570Z,10.50
2022-10-09T07:57:48.317Z,10.60
2022-10-09T08:00:51.012Z,10.70
2022-10-09T08:03:53.768Z,10.80
2022-10-09T08:06:58.409Z,10.90
2022-10-09T08:10:01.371Z,11.10
2022-10-09T08:13:04.972Z,11.20
2022-10-09T08:16:08.632Z,11.20
2022-10-09T08:19:11.486Z,11.30
2022-10-09T08:22:15.829Z,11.30
2022-10-09T08:25:18.704Z,11.40
2022-10-09T08:28:21.755Z,11.40
2022-10-09T08:31:25.085Z,11.40
2022-10-09T08:34:28.073Z,11.50
2022-10-09T08:37:32.229Z,11.60
2022-10-09T08:40:43.115Z,11.60
2022-10-09T08:43:50.953Z,11.80
2022-10-09T08:47:00.382Z,12.00
2022-10-09T08:50:12.960Z,12.10
2022-10-09T08:53:29.677Z,12.20
2022-10-09T08:56:34.411Z,12.30
2022-10-09T08:59:37.283Z,12.40
2022-10-09T09:03:03.909Z,12.40
2022-10-09T09:06:10.742Z,12.70
2022-10-09T09:09:20.391Z,12.70
2022-10-09T09:12:34.065Z,12.80
2022-10-09T09:15:47.826Z,12.90
2022-10-09T09:19:03.769Z,13.10
2022-10-09T09:22:11.956Z,13.10
2022-10-09T09:25:24.416Z,13.30
2022-10-09T09:28:30.233Z,13.50
2022-10-09T09:31:37.219Z,13.60
2022-10-09T09:34:42.361Z,13.70
2022-10-09T09:37:45.269Z,13.80
2022-10-09T09:40:50.729Z,13.80
2022-10-09T09:43:53.630Z,13.90
2022-10-09T09:46:56.792Z,14.00
2022-10-09T09:50:01.712Z,14.20
2022-10-09T09:53:08.332Z,14.30
2022-10-09T09:56:12.886Z,14.50
2022-10-09T09:59:32.229Z,14.60
2022-10-09T10:02:35.003Z,14.70
2022-10-09T10:05:38.905Z,14.80
2022-10-09T10:08:41.658Z,14.90
2022-10-09T10:11:48.408Z,15.00
2022-10-09T10:14:51.845Z,15.20
2022-10-09T10:18:00.915Z,15.40
2022-10-09T10:21:07.847Z,15.40
2022-10-09T10:24:16.212Z,15.50
2022-10-09T10:27:26.158Z,15.60
2022-10-09T10:30:29.500Z,15.50
2022-10-09T10:33:34.947Z,15.60
2022-10-09T10:36:37.701Z,15.70
2022-10-09T10:39:46.323Z,15.80
2022-10-09T10:43:07.279Z,15.80
2022-10-09T10:46:18.211Z,15.80
2022-10-09T10:49:23.542Z,15.80
2022-10-09T10:52:38.864Z,15.80
2022-10-09T10:55:53.804Z,15.90
2022-10-09T10:59:11.193Z,16.00
2022-10-09T11:02:41.251Z,16.30
2022-10-09T11:05:51.533Z,16.40
2022-10-09T11:09:06.569Z,16.20
2022-10-09T11:12:24.746Z,16.30
2022-10-09T11:15:47.946Z,16.40
2022-10-09T11:19:11.019Z,16.70
2022-10-09T11:22:28.755Z,17.00
2022-10-09T11:25:37.414Z,17.20
2022-10-09T11:28:47.342Z,17.10
2022-10-09T11:31:56.523Z,17.30
2022-10-09T11:35:03.353Z,17.40
2022-10-09T11:38:13.196Z,17.50
2022-10-09T11:41:17.027Z,17.30
2022-10-09T11:44:40.312Z,17.20
2022-10-09T11:47:52.892Z,17.30
2022-10-09T11:51:02.415Z,17.30
2022-10-09T11:54:11.477Z,17.30
2022-10-09T11:57:15.466Z,17.20
2022-10-09T12:00:30.546Z,17.50
2022-10-09T12:03:37.036Z,17.60
2022-10-09T12:06:48.258Z,17.60
2022-10-09T12:09:57.133Z,17.50
2022-10-09T12:13:03.014Z,17.60
2022-10-09T12:16:07.359Z,17.60
2022-10-09T12:19:17.870Z,17.60
2022-10-09T12:22:24.127Z,17.60
2022-10-09T12:25:30.426Z,17.40
2022-10-09T12:28:38.877Z,17.30
2022-10-09T12:31:43.328Z,17.10
2022-10-09T12:34:50.371Z,16.90
2022-10-09T12:37:53.467Z,16.50
2022-10-09T12:40:59.055Z,16.40
2022-10-09T12:44:02.758Z,16.20
2022-10-09T12:47:08.345Z,16.10
2022-10-09T12:50:24.034Z,16.20
2022-10-09T12:53:28.288Z,16.40
2022-10-09T12:56:34.025Z,16.50
2022-10-09T12:59:36.938Z,16.50
2022-10-09T13:02:41.470Z,16.20
2022-10-09T13:05:45.910Z,16.20
2022-10-09T13:08:53.723Z,16.30
2022-10-09T13:11:59.397Z,16.40
2022-10-09T13:15:04.551Z,16.60
2022-10-09T13:18:20.772Z,16.60
2022-10-09T13:21:29.081Z,16.60
2022-10-09T13:24:35.704Z,16.50
2022-10-09T13:27:40.730Z,16.50
2022-10-09T13:30:43.584Z,16.60
2022-10-09T13:33:46.816Z,16.80
2022-10-09T13:36:51.426Z,16.80
2022-10-09T13:39:54.937Z,16.80
2022-10-09T13:43:02.285Z,16.70
2022-10-09T13:46:05.109Z,16.40
2022-10-09T13:49:07.933Z,16.30
2022-10-09T13:52:12.078Z,16.30
2022-10-09T13:55:15.512Z,16.30
2022-10-09T13:58:18.307Z,16.40
2022-10-09T14:01:21.653Z,16.30
2022-10-09T14:04:24.469Z,16.20
2022-10-09T14:07:28.602Z,16.10
2022-10-09T14:10:31.411Z,16.00
2022-10-09T14:13:34.627Z,16.00
2022-10-09T14:16:37.464Z,16.00
2022-10-09T14:19:40.175Z,16.10
2022-10-09T14:22:44.285Z,16.10
2022-10-09T14:25:47.050Z,16.20
2022-10-09T14:28:49.984Z,16.20
2022-10-09T14:31:53.007Z,16.20
2022-10-09T14:34:55.921Z,16.20
2022-10-09T14:38:00.106Z,16.10
2022-10-09T14:41:02.928Z,16.00
2022-10-09T14:44:06.104Z,15.90
2022-10-09T14:47:08.913Z,15.90
2022-10-09T14:50:11.979Z,15.90
2022-10-09T14:53:16.431Z,15.80
2022-10-09T14:56:21.539Z,15.70
2022-10-09T14:59:25.005Z,15.60
2022-10-09T15:02:27.854Z,15.50
2022-10-09T15:05:30.767Z,15.40
2022-10-09T15:08:36.534Z,15.30
2022-10-09T15:11:39.495Z,15.20
2022-10-09T15:14:42.453Z,15.10
2022-10-09T15:17:45.226Z,15.10
2022-10-09T15:20:48.379Z,15.00
2022-10-09T15:23:54.811Z,15.00
2022-10-09T15:26:57.726Z,14.80
2022-10-09T15:30:00.585Z,14.70
2022-10-09T15:33:04.018Z,14.60
2022-10-09T15:36:06.938Z,14.60
2022-10-09T15:39:11.791Z,14.40
2022-10-09T15:42:14.616Z,14.40
2022-10-09T15:45:17.671Z,14.30
2022-10-09T15:48:22.394Z,14.20
2022-10-09T15:51:25.687Z,14.20
2022-10-09T15:54:30.311Z,14.10
2022-10-09T15:57:33.072Z,14.00
2022-10-09T16:00:37.443Z,14.00
2022-10-09T16:03:40.473Z,14.00
2022-10-09T16:06:43.276Z,13.90
2022-10-09T16:09:47.401Z,13.80
2022-10-09T16:12:50.508Z,13.70
2022-10-09T16:15:54.026Z,13.60
2022-10-09T16:18:57.620Z,13.60
2022-10-09T16:22:00.416Z,13.50
2022-10-09T16:25:04.936Z,13.40
2022-10-09T16:28:09.328Z,13.30
2022-10-09T16:31:19.678Z,13.30
2022-10-09T16:34:22.635Z,13.20
2022-10-09T16:37:25.409Z,13.10
2022-10-09T16:40:49.773Z,13.10
2022-10-09T16:43:55.235Z,13.20
2022-10-09T16:46:58.377Z,13.00
2022-10-09T16:50:01.281Z,12.90
2022-10-09T16:53:04.017Z,12.90
2022-10-09T16:56:14.183Z,12.80
2022-10-09T16:59:16.945Z,12.70
2022-10-09T17:02:19.710Z,12.70
2022-10-09T17:05:24.240Z,12.60
2022-10-09T17:08:27.512Z,12.60
2022-10-09T17:11:32.359Z,12.50
2022-10-09T17:14:36.421Z,12.50
2022-10-09T17:17:39.459Z,12.50
2022-10-09T17:20:42.249Z,12.40
2022-10-09T17:23:45.583Z,12.40
2022-10-09T17:26:49.747Z,12.40
2022-10-09T17:29:52.574Z,12.30
2022-10-09T17:32:55.362Z,12.30
2022-10-09T17:35:58.242Z,12.30
2022-10-09T17:39:01.721Z,12.20
2022-10-09T17:42:05.934Z,12.20
2022-10-09T17:45:10.207Z,12.10
2022-10-09T17:48:13.151Z,12.10
2022-10-09T17:51:17.662Z,12.00
2022-10-09T17:54:20.429Z,12.00
2022-10-09T17:57:25.317Z,11.90
2022-10-09T18:00:28.063Z,11.80
2022-10-09T18:03:30.809Z,11.80
2022-10-09T18:06:35.185Z,11.70
2022-10-09T18:09:38.407Z,11.70
2022-10-09T18:12:42.506Z,11.60
2022-10-09T18:15:45.316Z,11.50
2022-10-09T18:18:48.100Z,11.50
2022-10-09T18:21:51.101Z,11.40
2022-10-09T18:24:53.882Z,11.40
2022-10-09T18:27:58.112Z,11.30
2022-10-09T18:31:01.013Z,11.30
2022-10-09T18:34:03.937Z,11.30
2022-10-09T18:37:06.750Z,11.20
2022-10-09T18:40:10.123Z,11.10
2022-10-09T18:43:14.344Z,11.20
2022-10-09T18:46:18.655Z,11.10
2022-10-09T18:49:25.304Z,11.10
2022-10-09T18:52:28.341Z,11.00
2022-10-09T18:55:31.127Z,11.00
2022-10-09T18:58:36.529Z,11.00
2022-10-09T19:01:39.451Z,11.00
2022-10-09T19:04:42.254Z,10.90
2022-10-09T19:07:45.020Z,10.90
2022-10-09T19:10:51.276Z,10.90
2022-10-09T19:13:55.935Z,10.90
2022-10-09T19:16:58.744Z,10.80
2022-10-09T19:20:01.531Z,10.80
2022-10-09T19:23:04.275Z,10.80
2022-10-09T19:26:07.117Z,10.70
2022-10-09T19:29:11.255Z,10.70
2022-10-09T19:32:13.953Z,10.70
2022-10-09T19:35:16.868Z,10.60
2022-10-09T19:38:20.691Z,10.60
2022-10-09T19:41:23.518Z,10.50
2022-10-09T19:44:27.704Z,10.50
2022-10-09T19:47:30.431Z,10.50
2022-10-09T19:50:33.216Z,10.40
2022-10-09T19:53:36.489Z,10.40
2022-10-09T19:56:40.649Z,10.40
2022-10-09T19:59:44.927Z,10.40
2022-10-09T20:02:47.989Z,10.30
2022-10-09T20:05:51.045Z,10.40
2022-10-09T20:08:54.171Z,10.30
2022-10-09T20:11:56.936Z,10.30
2022-10-09T20:15:01.045Z,10.30
2022-10-09T20:18:03.815Z,10.30
2022-10-09T20:21:06.995Z,10.30
2022-10-09T20:24:09.978Z,10.20
2022-10-09T20:27:12.719Z,10.20
2022-10-09T20:30:17.007Z,10.20
2022-10-09T20:33:19.773Z,10.10
2022-10-09T20:36:25.273Z,10.10
2022-10-09T20:39:28.036Z,10.10
2022-10-09T20:42:31.909Z,10.00
2022-10-09T20:45:40.136Z,10.00
2022-10-09T20:48:43.579Z,10.00
2022-10-09T20:51:46.304Z,9.90
2022-10-09T20:54:49.105Z,9.90
2022-10-09T20:57:54.928Z,9.90
2022-10-09T21:00:59.665Z,9.90
2022-10-09T21:04:03.093Z,9.80
2022-10-09T21:07:05.865Z,9.80
2022-10-09T21:10:09.591Z,9.80
2022-10-09T21:13:12.518Z,9.80
2022-10-09T21:16:19.349Z,9.80
2022-10-09T21:19:22.192Z,9.80
2022-10-09T21:22:25.087Z,9.80
2022-10-09T21:25:27.990Z,9.80
2022-10-09T21:28:31.134Z,9.80
2022-10-09T21:31:35.507Z,9.80
2022-10-09T21:34:38.269Z,9.70
2022-10-09T21:37:41.079Z,9.70
2022-10-09T21:40:44.403Z,9.70
2022-10-09T21:43:47.238Z,9.70
2022-10-09T21:46:51.324Z,9.70
2022-10-09T21:49:54.333Z,9.60
2022-10-09T21:52:57.203Z,9.60
2022-10-09T21:56:00.053Z,9.50
2022-10-09T21:59:02.852Z,9.50
2022-10-09T22:02:06.918Z,9.50
2022-10-09T22:05:10.826Z,9.50
2022-10-09T22:08:13.602Z,9.40
2022-10-09T22:11:17.175Z,9.40
2022-10-09T22:14:20.011Z,9.40
2022-10-09T22:17:24.532Z,9.30
2022-10-09T22:20:27.843Z,9.30
2022-10-09T22:23:30.630Z,9.30
2022-10-09T22:26:33.380Z,9.20
2022-10-09T22:29:38.177Z,9.20
2022-10-09T22:32:42.263Z,9.00
2022-10-09T22:35:45.740Z,9.10
2022-10-09T22:38:48.707Z,9.00
2022-10-09T22:41:51.632Z,9.00
2022-10-09T22:44:54.419Z,9.00
2022-10-09T22:47:59.345Z,9.00
2022-10-09T22:51:03.468Z,9.00
2022-10-09T22:54:06.764Z,9.00
2022-10-09T22:57:09.464Z,9.00
2022-10-09T23:00:13.885Z,8.90
2022-10-09T23:03:18.051Z,9.00
2022-10-09T23:06:21.300Z,8.90
2022-10-09T23:09:26.478Z,8.90
2022-10-09T23:12:29.266Z,8.90
2022-10-09T23:15:32.045Z,8.90
2022-10-09T23:18:37.134Z,8.80
2022-10-09T23:21:42.021Z,8.80
2022-10-09T23:24:44.891Z,8.80
2022-10-09T23:27:47.711Z,8.80
2022-10-09T23:30:50.478Z,8.80
2022-10-09T23:33:55.343Z,8.80
2022-10-09T23:36:58.166Z,8.70
2022-10-09T23:40:00.925Z,8.70
2022-10-09T23:43:03.645Z,8.70
2022-10-09T23:46:08.862Z,8.70
2022-10-09T23:49:12.959Z,8.70
2022-10-09T23:52:15.853Z,8.70
2022-10-09T23:55:18.567Z,8.70
2022-10-09T23:58:21.880Z,8.70
